KCRP/CRP METAR and TAF weather

Enter ICAO airport designator
Station Type Date Time Source
KCRP METAR 2021/09/24 06:51 UTC NOAA

KCRP 240651Z 11006KT 10SM CLR 20/14 A3004 RMK AO2 SLP170 T02000144


Station Type Date Time Source
KCRP Decoded METAR 2021/09/24 06:51 UTC NOAA

CORPUS CHRISTI INTERNATIONAL , TX, United States (KCRP) 27-46N 97-31W 16M
Sep 24, 2021 - 02:51 AM EDT / 2021.09.24 0651 UTC
Wind: from the ESE (110 degrees) at 7 MPH (6 KT):0
Visibility: 10 mile(s):0
Sky conditions: clear
Temperature: 68.0 F (20.0 C)
Dew Point: 57.9 F (14.4 C)
Relative Humidity: 70%
Pressure (altimeter): 30.04 in. Hg (1017 hPa)
ob: KCRP 240651Z 11006KT 10SM CLR 20/14 A3004 RMK AO2 SLP170 T02000144
cycle: 7

Station Type Date Time Source
KCRP TAF 2021/09/24 06:22 UTC NOAA

TAF KCRP 240520Z 2406/2506 09008KT P6SM SKC
FM241800 11010G17KT P6SM FEW050
FM250300 13006KT P6SM FEW030

Example: see airport list